sensor_id;sensor_type;location;lat;lon;timestamp;P1;durP1;ratioP1;P2;durP2;ratioP2
7495;SDS011;3789;47.064;15.482;2024-02-14T00:00:28;4.70;;;3.60;;
7495;SDS011;3789;47.064;15.482;2024-02-14T00:02:59;3.17;;;2.77;;
7495;SDS011;3789;47.064;15.482;2024-02-14T00:05:31;3.63;;;2.80;;
7495;SDS011;3789;47.064;15.482;2024-02-14T00:08:08;3.53;;;2.77;;
7495;SDS011;3789;47.064;15.482;2024-02-14T00:10:37;5.13;;;2.70;;
7495;SDS011;3789;47.064;15.482;2024-02-14T00:13:08;4.43;;;2.80;;
7495;SDS011;3789;47.064;15.482;2024-02-14T00:15:42;2.83;;;2.47;;
7495;SDS011;3789;47.064;15.482;2024-02-14T00:18:16;4.33;;;3.00;;
7495;SDS011;3789;47.064;15.482;2024-02-14T00:20:52;4.00;;;2.90;;
7495;SDS011;3789;47.064;15.482;2024-02-14T00:23:21;3.53;;;2.50;;
7495;SDS011;3789;47.064;15.482;2024-02-14T00:26:03;3.10;;;2.20;;
7495;SDS011;3789;47.064;15.482;2024-02-14T00:28:40;3.10;;;2.83;;
7495;SDS011;3789;47.064;15.482;2024-02-14T00:31:13;4.87;;;3.17;;
7495;SDS011;3789;47.064;15.482;2024-02-14T00:33:42;4.27;;;3.20;;
7495;SDS011;3789;47.064;15.482;2024-02-14T00:36:17;4.77;;;3.37;;
7495;SDS011;3789;47.064;15.482;2024-02-14T00:38:59;3.70;;;2.70;;
7495;SDS011;3789;47.064;15.482;2024-02-14T00:41:29;4.93;;;3.07;;
7495;SDS011;3789;47.064;15.482;2024-02-14T00:44:02;4.20;;;2.93;;
7495;SDS011;3789;47.064;15.482;2024-02-14T00:46:35;3.77;;;3.10;;
7495;SDS011;3789;47.064;15.482;2024-02-14T00:49:10;3.53;;;3.23;;
7495;SDS011;3789;47.064;15.482;2024-02-14T00:51:43;3.00;;;2.63;;
7495;SDS011;3789;47.064;15.482;2024-02-14T00:54:16;3.30;;;2.30;;
7495;SDS011;3789;47.064;15.482;2024-02-14T00:56:47;4.27;;;2.90;;
7495;SDS011;3789;47.064;15.482;2024-02-14T00:59:17;2.90;;;2.60;;
7495;SDS011;3789;47.064;15.482;2024-02-14T01:01:46;5.03;;;2.67;;
7495;SDS011;3789;47.064;15.482;2024-02-14T01:04:16;3.63;;;2.70;;
7495;SDS011;3789;47.064;15.482;2024-02-14T01:06:48;3.80;;;2.93;;
7495;SDS011;3789;47.064;15.482;2024-02-14T01:09:26;5.57;;;3.30;;
7495;SDS011;3789;47.064;15.482;2024-02-14T01:11:55;5.23;;;2.90;;
7495;SDS011;3789;47.064;15.482;2024-02-14T01:14:27;4.97;;;3.30;;
7495;SDS011;3789;47.064;15.482;2024-02-14T01:16:58;3.77;;;2.63;;
7495;SDS011;3789;47.064;15.482;2024-02-14T01:19:28;3.60;;;2.80;;
7495;SDS011;3789;47.064;15.482;2024-02-14T01:22:03;4.70;;;3.10;;
7495;SDS011;3789;47.064;15.482;2024-02-14T01:24:31;4.63;;;3.37;;
7495;SDS011;3789;47.064;15.482;2024-02-14T01:27:02;4.17;;;3.37;;
7495;SDS011;3789;47.064;15.482;2024-02-14T01:29:34;5.27;;;3.17;;
7495;SDS011;3789;47.064;15.482;2024-02-14T01:32:03;4.23;;;3.23;;
7495;SDS011;3789;47.064;15.482;2024-02-14T01:34:33;2.90;;;2.70;;
7495;SDS011;3789;47.064;15.482;2024-02-14T01:37:02;4.93;;;3.07;;
7495;SDS011;3789;47.064;15.482;2024-02-14T01:39:32;3.27;;;2.87;;
7495;SDS011;3789;47.064;15.482;2024-02-14T01:41:59;2.83;;;2.60;;
7495;SDS011;3789;47.064;15.482;2024-02-14T01:44:33;3.23;;;2.77;;
7495;SDS011;3789;47.064;15.482;2024-02-14T01:47:07;4.70;;;3.13;;
7495;SDS011;3789;47.064;15.482;2024-02-14T01:49:36;4.13;;;2.70;;
7495;SDS011;3789;47.064;15.482;2024-02-14T01:52:08;4.27;;;3.37;;
7495;SDS011;3789;47.064;15.482;2024-02-14T01:54:39;5.30;;;3.80;;
7495;SDS011;3789;47.064;15.482;2024-02-14T01:57:16;4.10;;;3.50;;
7495;SDS011;3789;47.064;15.482;2024-02-14T01:59:47;5.50;;;3.40;;
7495;SDS011;3789;47.064;15.482;2024-02-14T02:02:18;5.83;;;3.50;;
7495;SDS011;3789;47.064;15.482;2024-02-14T02:04:57;6.07;;;3.43;;
7495;SDS011;3789;47.064;15.482;2024-02-14T02:07:26;3.47;;;3.17;;
7495;SDS011;3789;47.064;15.482;2024-02-14T02:09:54;5.77;;;3.40;;
7495;SDS011;3789;47.064;15.482;2024-02-14T02:12:24;4.03;;;3.63;;
7495;SDS011;3789;47.064;15.482;2024-02-14T02:14:55;6.70;;;4.00;;
7495;SDS011;3789;47.064;15.482;2024-02-14T02:17:22;5.70;;;3.93;;
7495;SDS011;3789;47.064;15.482;2024-02-14T02:19:54;5.93;;;3.87;;
7495;SDS011;3789;47.064;15.482;2024-02-14T02:22:30;4.53;;;3.10;;
7495;SDS011;3789;47.064;15.482;2024-02-14T02:25:04;3.40;;;3.10;;
7495;SDS011;3789;47.064;15.482;2024-02-14T02:27:34;4.30;;;3.90;;
7495;SDS011;3789;47.064;15.482;2024-02-14T02:30:06;4.63;;;3.67;;
7495;SDS011;3789;47.064;15.482;2024-02-14T02:32:38;5.43;;;4.10;;
7495;SDS011;3789;47.064;15.482;2024-02-14T02:35:10;5.53;;;4.20;;
7495;SDS011;3789;47.064;15.482;2024-02-14T02:37:39;7.70;;;4.27;;
7495;SDS011;3789;47.064;15.482;2024-02-14T02:40:10;5.73;;;4.27;;
7495;SDS011;3789;47.064;15.482;2024-02-14T02:42:43;5.67;;;4.53;;
7495;SDS011;3789;47.064;15.482;2024-02-14T02:45:13;7.50;;;4.97;;
7495;SDS011;3789;47.064;15.482;2024-02-14T02:47:49;5.93;;;4.27;;
7495;SDS011;3789;47.064;15.482;2024-02-14T02:50:21;6.33;;;5.10;;
7495;SDS011;3789;47.064;15.482;2024-02-14T02:52:50;7.57;;;5.00;;
7495;SDS011;3789;47.064;15.482;2024-02-14T02:55:20;5.23;;;4.50;;
7495;SDS011;3789;47.064;15.482;2024-02-14T02:57:54;6.40;;;5.37;;
7495;SDS011;3789;47.064;15.482;2024-02-14T03:00:26;5.77;;;4.87;;
7495;SDS011;3789;47.064;15.482;2024-02-14T03:02:57;8.63;;;5.30;;
7495;SDS011;3789;47.064;15.482;2024-02-14T03:05:30;6.57;;;4.87;;
7495;SDS011;3789;47.064;15.482;2024-02-14T03:08:01;6.57;;;5.20;;
7495;SDS011;3789;47.064;15.482;2024-02-14T03:10:31;7.33;;;5.43;;
7495;SDS011;3789;47.064;15.482;2024-02-14T03:13:01;8.43;;;5.03;;
7495;SDS011;3789;47.064;15.482;2024-02-14T03:15:39;6.10;;;5.00;;
7495;SDS011;3789;47.064;15.482;2024-02-14T03:18:18;6.73;;;4.43;;
7495;SDS011;3789;47.064;15.482;2024-02-14T03:20:57;5.70;;;3.23;;
7495;SDS011;3789;47.064;15.482;2024-02-14T03:23:31;6.03;;;3.63;;
7495;SDS011;3789;47.064;15.482;2024-02-14T03:26:06;5.63;;;3.77;;
7495;SDS011;3789;47.064;15.482;2024-02-14T03:28:47;8.73;;;4.37;;
7495;SDS011;3789;47.064;15.482;2024-02-14T03:31:23;5.43;;;4.20;;
7495;SDS011;3789;47.064;15.482;2024-02-14T03:34:03;3.97;;;3.40;;
7495;SDS011;3789;47.064;15.482;2024-02-14T03:36:43;5.47;;;3.33;;
7495;SDS011;3789;47.064;15.482;2024-02-14T03:39:11;4.53;;;3.10;;
7495;SDS011;3789;47.064;15.482;2024-02-14T03:41:38;3.10;;;2.80;;
7495;SDS011;3789;47.064;15.482;2024-02-14T03:44:08;3.50;;;2.77;;
7495;SDS011;3789;47.064;15.482;2024-02-14T03:46:47;4.50;;;2.20;;
7495;SDS011;3789;47.064;15.482;2024-02-14T03:49:20;4.17;;;2.47;;
7495;SDS011;3789;47.064;15.482;2024-02-14T03:51:53;2.67;;;2.47;;
7495;SDS011;3789;47.064;15.482;2024-02-14T03:54:41;4.53;;;2.70;;
7495;SDS011;3789;47.064;15.482;2024-02-14T03:57:20;2.73;;;2.53;;
7495;SDS011;3789;47.064;15.482;2024-02-14T03:59:59;3.03;;;2.60;;
7495;SDS011;3789;47.064;15.482;2024-02-14T04:02:38;3.30;;;2.67;;
7495;SDS011;3789;47.064;15.482;2024-02-14T04:05:12;3.20;;;2.90;;
7495;SDS011;3789;47.064;15.482;2024-02-14T04:07:40;3.00;;;2.70;;
7495;SDS011;3789;47.064;15.482;2024-02-14T04:10:20;3.63;;;2.67;;
7495;SDS011;3789;47.064;15.482;2024-02-14T04:12:56;4.30;;;2.60;;
7495;SDS011;3789;47.064;15.482;2024-02-14T04:15:34;3.10;;;2.80;;
7495;SDS011;3789;47.064;15.482;2024-02-14T04:18:14;5.67;;;4.27;;
7495;SDS011;3789;47.064;15.482;2024-02-14T04:20:51;2.93;;;2.70;;
7495;SDS011;3789;47.064;15.482;2024-02-14T04:23:25;4.90;;;3.20;;
7495;SDS011;3789;47.064;15.482;2024-02-14T04:25:54;3.70;;;3.00;;
7495;SDS011;3789;47.064;15.482;2024-02-14T04:28:26;3.03;;;2.70;;
7495;SDS011;3789;47.064;15.482;2024-02-14T04:30:59;6.43;;;3.17;;
7495;SDS011;3789;47.064;15.482;2024-02-14T04:33:28;3.53;;;2.63;;
7495;SDS011;3789;47.064;15.482;2024-02-14T04:36:02;2.90;;;2.53;;
7495;SDS011;3789;47.064;15.482;2024-02-14T04:38:39;2.63;;;2.43;;
7495;SDS011;3789;47.064;15.482;2024-02-14T04:41:10;2.83;;;2.47;;
7495;SDS011;3789;47.064;15.482;2024-02-14T04:43:46;2.90;;;2.60;;
7495;SDS011;3789;47.064;15.482;2024-02-14T04:46:18;3.80;;;2.37;;
7495;SDS011;3789;47.064;15.482;2024-02-14T04:48:50;3.33;;;2.63;;
7495;SDS011;3789;47.064;15.482;2024-02-14T04:51:24;3.23;;;2.83;;
7495;SDS011;3789;47.064;15.482;2024-02-14T04:53:54;3.53;;;3.20;;
7495;SDS011;3789;47.064;15.482;2024-02-14T04:56:31;5.63;;;3.20;;
7495;SDS011;3789;47.064;15.482;2024-02-14T04:59:01;2.63;;;2.43;;
7495;SDS011;3789;47.064;15.482;2024-02-14T05:01:36;3.13;;;2.33;;
7495;SDS011;3789;47.064;15.482;2024-02-14T05:04:16;2.63;;;2.40;;
7495;SDS011;3789;47.064;15.482;2024-02-14T05:06:49;2.50;;;2.33;;
7495;SDS011;3789;47.064;15.482;2024-02-14T05:09:26;2.57;;;2.37;;
7495;SDS011;3789;47.064;15.482;2024-02-14T05:11:55;2.50;;;2.30;;
7495;SDS011;3789;47.064;15.482;2024-02-14T05:14:25;2.13;;;2.03;;
7495;SDS011;3789;47.064;15.482;2024-02-14T05:17:01;2.77;;;2.03;;
7495;SDS011;3789;47.064;15.482;2024-02-14T05:19:32;2.67;;;2.47;;
7495;SDS011;3789;47.064;15.482;2024-02-14T05:21:59;3.63;;;2.00;;
7495;SDS011;3789;47.064;15.482;2024-02-14T05:24:28;3.57;;;2.40;;
7495;SDS011;3789;47.064;15.482;2024-02-14T05:27:05;2.97;;;2.20;;
7495;SDS011;3789;47.064;15.482;2024-02-14T05:29:35;4.47;;;2.63;;
7495;SDS011;3789;47.064;15.482;2024-02-14T05:32:06;2.40;;;2.20;;
7495;SDS011;3789;47.064;15.482;2024-02-14T05:34:39;2.83;;;2.03;;
7495;SDS011;3789;47.064;15.482;2024-02-14T05:37:12;5.63;;;2.23;;
7495;SDS011;3789;47.064;15.482;2024-02-14T05:39:45;1.90;;;1.80;;
7495;SDS011;3789;47.064;15.482;2024-02-14T05:42:15;2.47;;;2.27;;
7495;SDS011;3789;47.064;15.482;2024-02-14T05:44:51;2.37;;;2.17;;
7495;SDS011;3789;47.064;15.482;2024-02-14T05:47:29;2.93;;;2.23;;
7495;SDS011;3789;47.064;15.482;2024-02-14T05:50:05;3.00;;;2.30;;
7495;SDS011;3789;47.064;15.482;2024-02-14T05:52:49;3.60;;;2.20;;
7495;SDS011;3789;47.064;15.482;2024-02-14T05:55:30;2.40;;;2.20;;
7495;SDS011;3789;47.064;15.482;2024-02-14T05:58:41;2.43;;;2.23;;
7495;SDS011;3789;47.064;15.482;2024-02-14T06:01:11;2.67;;;2.27;;
7495;SDS011;3789;47.064;15.482;2024-02-14T06:03:47;2.40;;;2.20;;
7495;SDS011;3789;47.064;15.482;2024-02-14T06:06:16;2.50;;;2.30;;
7495;SDS011;3789;47.064;15.482;2024-02-14T06:08:46;2.50;;;2.30;;
7495;SDS011;3789;47.064;15.482;2024-02-14T06:11:30;3.57;;;2.53;;
7495;SDS011;3789;47.064;15.482;2024-02-14T06:14:03;2.93;;;2.47;;
7495;SDS011;3789;47.064;15.482;2024-02-14T06:16:38;5.87;;;3.50;;
7495;SDS011;3789;47.064;15.482;2024-02-14T06:19:10;6.47;;;2.93;;
7495;SDS011;3789;47.064;15.482;2024-02-14T06:21:45;2.50;;;2.30;;
7495;SDS011;3789;47.064;15.482;2024-02-14T06:24:22;2.60;;;2.10;;
7495;SDS011;3789;47.064;15.482;2024-02-14T06:26:58;2.33;;;2.13;;
7495;SDS011;3789;47.064;15.482;2024-02-14T06:29:30;3.00;;;2.27;;
7495;SDS011;3789;47.064;15.482;2024-02-14T06:32:00;2.73;;;2.40;;
7495;SDS011;3789;47.064;15.482;2024-02-14T06:34:46;2.13;;;2.03;;
7495;SDS011;3789;47.064;15.482;2024-02-14T06:37:23;2.63;;;2.43;;
7495;SDS011;3789;47.064;15.482;2024-02-14T06:39:58;2.57;;;2.37;;
7495;SDS011;3789;47.064;15.482;2024-02-14T06:42:50;7.53;;;2.33;;
7495;SDS011;3789;47.064;15.482;2024-02-14T06:45:30;3.43;;;2.33;;
7495;SDS011;3789;47.064;15.482;2024-02-14T06:48:07;2.67;;;2.17;;
7495;SDS011;3789;47.064;15.482;2024-02-14T06:50:56;2.70;;;2.50;;
7495;SDS011;3789;47.064;15.482;2024-02-14T06:53:38;3.50;;;2.23;;
7495;SDS011;3789;47.064;15.482;2024-02-14T06:56:07;4.77;;;2.90;;
7495;SDS011;3789;47.064;15.482;2024-02-14T06:58:34;6.10;;;3.87;;
7495;SDS011;3789;47.064;15.482;2024-02-14T07:01:03;6.53;;;4.50;;
7495;SDS011;3789;47.064;15.482;2024-02-14T07:03:44;4.60;;;3.53;;
7495;SDS011;3789;47.064;15.482;2024-02-14T07:06:24;5.47;;;3.83;;
7495;SDS011;3789;47.064;15.482;2024-02-14T07:09:01;7.27;;;4.83;;
7495;SDS011;3789;47.064;15.482;2024-02-14T07:11:42;6.33;;;4.97;;
7495;SDS011;3789;47.064;15.482;2024-02-14T07:14:15;6.00;;;4.27;;
7495;SDS011;3789;47.064;15.482;2024-02-14T07:16:43;5.63;;;4.40;;
7495;SDS011;3789;47.064;15.482;2024-02-14T07:19:15;8.87;;;4.40;;
7495;SDS011;3789;47.064;15.482;2024-02-14T07:21:47;6.23;;;4.40;;
7495;SDS011;3789;47.064;15.482;2024-02-14T07:24:26;5.67;;;3.97;;
7495;SDS011;3789;47.064;15.482;2024-02-14T07:26:56;8.13;;;4.70;;
7495;SDS011;3789;47.064;15.482;2024-02-14T07:29:26;8.07;;;5.33;;
7495;SDS011;3789;47.064;15.482;2024-02-14T07:31:54;7.33;;;5.17;;
7495;SDS011;3789;47.064;15.482;2024-02-14T07:34:27;8.13;;;4.97;;
7495;SDS011;3789;47.064;15.482;2024-02-14T07:36:57;7.73;;;4.53;;
7495;SDS011;3789;47.064;15.482;2024-02-14T07:39:25;5.57;;;4.40;;
7495;SDS011;3789;47.064;15.482;2024-02-14T07:41:53;6.43;;;4.23;;
7495;SDS011;3789;47.064;15.482;2024-02-14T07:44:23;16.03;;;8.73;;
7495;SDS011;3789;47.064;15.482;2024-02-14T07:46:53;18.37;;;10.70;;
7495;SDS011;3789;47.064;15.482;2024-02-14T07:49:32;13.87;;;8.60;;
7495;SDS011;3789;47.064;15.482;2024-02-14T07:52:00;10.50;;;6.70;;
7495;SDS011;3789;47.064;15.482;2024-02-14T07:54:29;8.53;;;5.43;;
7495;SDS011;3789;47.064;15.482;2024-02-14T07:56:59;6.40;;;4.30;;
7495;SDS011;3789;47.064;15.482;2024-02-14T07:59:28;3.83;;;3.13;;
7495;SDS011;3789;47.064;15.482;2024-02-14T08:01:57;4.03;;;2.80;;
7495;SDS011;3789;47.064;15.482;2024-02-14T08:04:29;5.37;;;3.03;;
7495;SDS011;3789;47.064;15.482;2024-02-14T08:06:58;3.07;;;2.63;;
7495;SDS011;3789;47.064;15.482;2024-02-14T08:09:29;4.17;;;3.03;;
7495;SDS011;3789;47.064;15.482;2024-02-14T08:11:57;4.63;;;2.80;;
7495;SDS011;3789;47.064;15.482;2024-02-14T08:14:28;4.03;;;2.67;;
7495;SDS011;3789;47.064;15.482;2024-02-14T08:16:58;3.00;;;2.70;;
7495;SDS011;3789;47.064;15.482;2024-02-14T08:19:27;4.27;;;2.57;;
7495;SDS011;3789;47.064;15.482;2024-02-14T08:21:56;6.87;;;2.60;;
7495;SDS011;3789;47.064;15.482;2024-02-14T08:24:34;2.97;;;2.40;;
7495;SDS011;3789;47.064;15.482;2024-02-14T08:27:06;4.77;;;2.70;;
7495;SDS011;3789;47.064;15.482;2024-02-14T08:29:44;4.90;;;3.27;;
7495;SDS011;3789;47.064;15.482;2024-02-14T08:32:22;4.93;;;3.50;;
7495;SDS011;3789;47.064;15.482;2024-02-14T08:34:53;5.20;;;3.47;;
7495;SDS011;3789;47.064;15.482;2024-02-14T08:37:25;4.13;;;3.10;;
7495;SDS011;3789;47.064;15.482;2024-02-14T08:39:53;4.30;;;3.20;;
7495;SDS011;3789;47.064;15.482;2024-02-14T08:42:25;4.27;;;3.00;;
7495;SDS011;3789;47.064;15.482;2024-02-14T08:45:01;4.97;;;2.80;;
7495;SDS011;3789;47.064;15.482;2024-02-14T08:47:30;4.17;;;2.90;;
7495;SDS011;3789;47.064;15.482;2024-02-14T08:50:05;5.53;;;3.20;;
7495;SDS011;3789;47.064;15.482;2024-02-14T08:52:37;4.17;;;2.87;;
7495;SDS011;3789;47.064;15.482;2024-02-14T08:55:05;4.57;;;2.90;;
7495;SDS011;3789;47.064;15.482;2024-02-14T08:57:37;3.90;;;2.80;;
7495;SDS011;3789;47.064;15.482;2024-02-14T09:00:06;3.30;;;2.87;;
7495;SDS011;3789;47.064;15.482;2024-02-14T09:02:38;4.77;;;2.97;;
7495;SDS011;3789;47.064;15.482;2024-02-14T09:05:17;3.77;;;2.40;;
7495;SDS011;3789;47.064;15.482;2024-02-14T09:07:53;4.30;;;2.30;;
7495;SDS011;3789;47.064;15.482;2024-02-14T09:10:22;4.23;;;2.73;;
7495;SDS011;3789;47.064;15.482;2024-02-14T09:12:52;4.07;;;3.10;;
7495;SDS011;3789;47.064;15.482;2024-02-14T09:15:22;4.30;;;2.70;;
7495;SDS011;3789;47.064;15.482;2024-02-14T09:17:53;5.43;;;2.33;;
7495;SDS011;3789;47.064;15.482;2024-02-14T09:20:24;4.20;;;2.37;;
7495;SDS011;3789;47.064;15.482;2024-02-14T09:22:56;3.13;;;2.37;;
7495;SDS011;3789;47.064;15.482;2024-02-14T09:25:25;2.40;;;2.20;;
7495;SDS011;3789;47.064;15.482;2024-02-14T09:27:55;2.70;;;1.93;;
7495;SDS011;3789;47.064;15.482;2024-02-14T09:30:23;4.43;;;2.13;;
7495;SDS011;3789;47.064;15.482;2024-02-14T09:33:04;3.80;;;2.10;;
7495;SDS011;3789;47.064;15.482;2024-02-14T09:35:40;2.57;;;2.33;;
7495;SDS011;3789;47.064;15.482;2024-02-14T09:38:12;3.17;;;1.93;;
7495;SDS011;3789;47.064;15.482;2024-02-14T09:40:41;2.70;;;2.10;;
7495;SDS011;3789;47.064;15.482;2024-02-14T09:46:14;2.13;;;1.90;;
7495;SDS011;3789;47.064;15.482;2024-02-14T09:49:05;3.63;;;2.50;;
7495;SDS011;3789;47.064;15.482;2024-02-14T09:51:36;4.40;;;3.00;;
7495;SDS011;3789;47.064;15.482;2024-02-14T09:54:06;5.30;;;2.63;;
7495;SDS011;3789;47.064;15.482;2024-02-14T09:56:48;3.27;;;2.10;;
7495;SDS011;3789;47.064;15.482;2024-02-14T09:59:24;2.63;;;2.27;;
7495;SDS011;3789;47.064;15.482;2024-02-14T10:01:51;6.40;;;2.57;;
7495;SDS011;3789;47.064;15.482;2024-02-14T10:04:19;2.83;;;2.23;;
7495;SDS011;3789;47.064;15.482;2024-02-14T10:06:51;2.27;;;2.03;;
7495;SDS011;3789;47.064;15.482;2024-02-14T10:09:25;2.90;;;2.03;;
7495;SDS011;3789;47.064;15.482;2024-02-14T10:12:02;3.37;;;2.37;;
7495;SDS011;3789;47.064;15.482;2024-02-14T10:14:40;4.43;;;2.67;;
7495;SDS011;3789;47.064;15.482;2024-02-14T10:17:20;3.17;;;2.23;;
7495;SDS011;3789;47.064;15.482;2024-02-14T10:20:00;3.87;;;2.30;;
7495;SDS011;3789;47.064;15.482;2024-02-14T10:22:35;4.73;;;2.23;;
7495;SDS011;3789;47.064;15.482;2024-02-14T10:25:07;2.07;;;1.83;;
7495;SDS011;3789;47.064;15.482;2024-02-14T10:27:39;3.63;;;2.17;;
7495;SDS011;3789;47.064;15.482;2024-02-14T10:30:09;3.13;;;2.20;;
7495;SDS011;3789;47.064;15.482;2024-02-14T10:32:46;4.97;;;2.37;;
7495;SDS011;3789;47.064;15.482;2024-02-14T10:35:18;5.13;;;2.40;;
7495;SDS011;3789;47.064;15.482;2024-02-14T10:37:54;3.73;;;2.63;;
7495;SDS011;3789;47.064;15.482;2024-02-14T10:40:29;3.73;;;2.90;;
7495;SDS011;3789;47.064;15.482;2024-02-14T10:43:02;5.33;;;3.20;;
7495;SDS011;3789;47.064;15.482;2024-02-14T10:45:36;5.13;;;2.73;;
7495;SDS011;3789;47.064;15.482;2024-02-14T10:48:04;3.47;;;2.50;;
7495;SDS011;3789;47.064;15.482;2024-02-14T10:50:43;4.00;;;2.53;;
7495;SDS011;3789;47.064;15.482;2024-02-14T10:53:14;4.30;;;2.77;;
7495;SDS011;3789;47.064;15.482;2024-02-14T10:55:48;3.37;;;2.87;;
7495;SDS011;3789;47.064;15.482;2024-02-14T10:58:17;5.20;;;3.10;;
7495;SDS011;3789;47.064;15.482;2024-02-14T11:00:48;6.13;;;2.70;;
7495;SDS011;3789;47.064;15.482;2024-02-14T11:03:16;4.90;;;2.50;;
7495;SDS011;3789;47.064;15.482;2024-02-14T11:05:47;4.70;;;2.40;;
7495;SDS011;3789;47.064;15.482;2024-02-14T11:08:19;2.67;;;2.37;;
7495;SDS011;3789;47.064;15.482;2024-02-14T11:10:55;5.73;;;2.17;;
7495;SDS011;3789;47.064;15.482;2024-02-14T11:13:29;2.63;;;2.33;;
7495;SDS011;3789;47.064;15.482;2024-02-14T11:16:02;3.07;;;2.23;;
7495;SDS011;3789;47.064;15.482;2024-02-14T11:18:39;2.70;;;2.00;;
7495;SDS011;3789;47.064;15.482;2024-02-14T11:21:15;2.13;;;1.60;;
7495;SDS011;3789;47.064;15.482;2024-02-14T11:23:52;2.73;;;1.90;;
7495;SDS011;3789;47.064;15.482;2024-02-14T11:26:37;3.00;;;2.30;;
7495;SDS011;3789;47.064;15.482;2024-02-14T11:29:07;2.10;;;1.83;;
7495;SDS011;3789;47.064;15.482;2024-02-14T11:31:35;2.47;;;2.00;;
7495;SDS011;3789;47.064;15.482;2024-02-14T11:34:08;3.90;;;2.03;;
7495;SDS011;3789;47.064;15.482;2024-02-14T11:36:43;2.37;;;2.10;;
7495;SDS011;3789;47.064;15.482;2024-02-14T11:39:20;4.13;;;1.90;;
7495;SDS011;3789;47.064;15.482;2024-02-14T11:41:57;4.60;;;2.50;;
7495;SDS011;3789;47.064;15.482;2024-02-14T11:44:28;5.80;;;2.70;;
7495;SDS011;3789;47.064;15.482;2024-02-14T11:46:56;3.80;;;2.30;;
7495;SDS011;3789;47.064;15.482;2024-02-14T11:49:29;2.33;;;2.00;;
7495;SDS011;3789;47.064;15.482;2024-02-14T11:51:59;3.73;;;2.37;;
7495;SDS011;3789;47.064;15.482;2024-02-14T11:54:30;4.33;;;2.17;;
7495;SDS011;3789;47.064;15.482;2024-02-14T11:57:02;2.53;;;1.97;;
7495;SDS011;3789;47.064;15.482;2024-02-14T11:59:34;4.27;;;2.30;;
7495;SDS011;3789;47.064;15.482;2024-02-14T12:02:03;2.73;;;2.10;;
7495;SDS011;3789;47.064;15.482;2024-02-14T12:04:32;4.00;;;2.43;;
7495;SDS011;3789;47.064;15.482;2024-02-14T12:07:03;3.17;;;2.23;;
7495;SDS011;3789;47.064;15.482;2024-02-14T12:09:32;2.87;;;2.10;;
7495;SDS011;3789;47.064;15.482;2024-02-14T12:12:00;3.43;;;2.57;;
7495;SDS011;3789;47.064;15.482;2024-02-14T12:14:32;5.27;;;2.90;;
7495;SDS011;3789;47.064;15.482;2024-02-14T12:17:06;3.90;;;2.67;;
7495;SDS011;3789;47.064;15.482;2024-02-14T12:19:37;5.67;;;2.77;;
7495;SDS011;3789;47.064;15.482;2024-02-14T12:22:12;4.60;;;2.50;;
7495;SDS011;3789;47.064;15.482;2024-02-14T12:24:48;2.80;;;2.50;;
7495;SDS011;3789;47.064;15.482;2024-02-14T12:27:27;3.13;;;2.30;;
7495;SDS011;3789;47.064;15.482;2024-02-14T12:30:07;3.83;;;2.13;;
7495;SDS011;3789;47.064;15.482;2024-02-14T12:32:39;4.93;;;2.47;;
7495;SDS011;3789;47.064;15.482;2024-02-14T12:35:10;3.77;;;2.23;;
7495;SDS011;3789;47.064;15.482;2024-02-14T12:37:39;3.17;;;2.57;;
7495;SDS011;3789;47.064;15.482;2024-02-14T12:40:07;2.33;;;1.83;;
7495;SDS011;3789;47.064;15.482;2024-02-14T12:42:38;4.13;;;2.07;;
7495;SDS011;3789;47.064;15.482;2024-02-14T12:45:09;2.80;;;1.93;;
7495;SDS011;3789;47.064;15.482;2024-02-14T12:47:41;3.10;;;2.00;;
7495;SDS011;3789;47.064;15.482;2024-02-14T12:50:11;6.67;;;2.33;;
7495;SDS011;3789;47.064;15.482;2024-02-14T12:52:42;2.07;;;1.87;;
7495;SDS011;3789;47.064;15.482;2024-02-14T12:55:10;2.10;;;1.60;;
7495;SDS011;3789;47.064;15.482;2024-02-14T12:57:39;2.43;;;1.77;;
7495;SDS011;3789;47.064;15.482;2024-02-14T13:00:10;2.30;;;1.90;;
7495;SDS011;3789;47.064;15.482;2024-02-14T13:02:38;2.17;;;1.37;;
7495;SDS011;3789;47.064;15.482;2024-02-14T13:05:13;2.00;;;1.40;;
7495;SDS011;3789;47.064;15.482;2024-02-14T13:07:51;3.00;;;1.57;;
7495;SDS011;3789;47.064;15.482;2024-02-14T13:10:19;1.43;;;1.33;;
7495;SDS011;3789;47.064;15.482;2024-02-14T13:12:51;2.50;;;1.57;;
7495;SDS011;3789;47.064;15.482;2024-02-14T13:15:20;2.00;;;1.80;;
7495;SDS011;3789;47.064;15.482;2024-02-14T13:17:51;1.53;;;1.43;;
7495;SDS011;3789;47.064;15.482;2024-02-14T13:20:28;1.47;;;1.33;;
7495;SDS011;3789;47.064;15.482;2024-02-14T13:23:00;1.67;;;1.30;;
7495;SDS011;3789;47.064;15.482;2024-02-14T13:25:31;1.67;;;1.10;;
7495;SDS011;3789;47.064;15.482;2024-02-14T13:28:01;1.50;;;1.23;;
7495;SDS011;3789;47.064;15.482;2024-02-14T13:30:37;2.50;;;1.23;;
7495;SDS011;3789;47.064;15.482;2024-02-14T13:33:30;1.53;;;1.23;;
7495;SDS011;3789;47.064;15.482;2024-02-14T13:36:00;1.33;;;1.20;;
7495;SDS011;3789;47.064;15.482;2024-02-14T13:38:30;2.60;;;1.50;;
7495;SDS011;3789;47.064;15.482;2024-02-14T13:41:00;2.40;;;1.23;;
7495;SDS011;3789;47.064;15.482;2024-02-14T13:43:30;1.57;;;1.27;;
7495;SDS011;3789;47.064;15.482;2024-02-14T13:46:08;1.37;;;1.27;;
7495;SDS011;3789;47.064;15.482;2024-02-14T13:48:39;2.63;;;1.23;;
7495;SDS011;3789;47.064;15.482;2024-02-14T13:51:21;1.97;;;1.30;;
7495;SDS011;3789;47.064;15.482;2024-02-14T13:53:50;1.60;;;1.40;;
7495;SDS011;3789;47.064;15.482;2024-02-14T13:56:19;4.53;;;1.53;;
7495;SDS011;3789;47.064;15.482;2024-02-14T13:58:54;2.57;;;1.53;;
7495;SDS011;3789;47.064;15.482;2024-02-14T14:01:23;2.20;;;1.73;;
7495;SDS011;3789;47.064;15.482;2024-02-14T14:03:53;1.40;;;1.30;;
7495;SDS011;3789;47.064;15.482;2024-02-14T14:06:24;2.80;;;1.60;;
7495;SDS011;3789;47.064;15.482;2024-02-14T14:08:58;3.10;;;1.50;;
7495;SDS011;3789;47.064;15.482;2024-02-14T14:11:28;2.13;;;1.50;;
7495;SDS011;3789;47.064;15.482;2024-02-14T14:13:58;1.43;;;1.33;;
7495;SDS011;3789;47.064;15.482;2024-02-14T14:16:35;2.10;;;1.63;;
7495;SDS011;3789;47.064;15.482;2024-02-14T14:19:04;1.93;;;1.27;;
7495;SDS011;3789;47.064;15.482;2024-02-14T14:21:33;1.73;;;1.63;;
7495;SDS011;3789;47.064;15.482;2024-02-14T14:24:05;1.63;;;1.53;;
7495;SDS011;3789;47.064;15.482;2024-02-14T14:26:36;1.73;;;1.27;;
7495;SDS011;3789;47.064;15.482;2024-02-14T14:29:06;2.83;;;2.10;;
7495;SDS011;3789;47.064;15.482;2024-02-14T14:31:36;2.13;;;1.40;;
7495;SDS011;3789;47.064;15.482;2024-02-14T14:34:07;1.93;;;1.43;;
7495;SDS011;3789;47.064;15.482;2024-02-14T14:36:37;1.30;;;1.20;;
7495;SDS011;3789;47.064;15.482;2024-02-14T14:39:10;1.50;;;1.40;;
7495;SDS011;3789;47.064;15.482;2024-02-14T14:41:39;1.67;;;1.30;;
7495;SDS011;3789;47.064;15.482;2024-02-14T14:44:09;1.40;;;1.30;;
7495;SDS011;3789;47.064;15.482;2024-02-14T14:46:39;1.53;;;1.20;;
7495;SDS011;3789;47.064;15.482;2024-02-14T14:49:10;1.50;;;1.40;;
7495;SDS011;3789;47.064;15.482;2024-02-14T14:51:40;2.03;;;1.30;;
7495;SDS011;3789;47.064;15.482;2024-02-14T14:54:07;2.73;;;1.30;;
7495;SDS011;3789;47.064;15.482;2024-02-14T14:56:38;4.30;;;1.40;;
7495;SDS011;3789;47.064;15.482;2024-02-14T14:59:10;1.50;;;1.40;;
7495;SDS011;3789;47.064;15.482;2024-02-14T15:01:42;1.50;;;1.40;;
7495;SDS011;3789;47.064;15.482;2024-02-14T15:04:11;2.27;;;1.30;;
7495;SDS011;3789;47.064;15.482;2024-02-14T15:06:38;1.67;;;1.30;;
7495;SDS011;3789;47.064;15.482;2024-02-14T15:09:08;1.77;;;1.40;;
7495;SDS011;3789;47.064;15.482;2024-02-14T15:11:39;1.73;;;1.30;;
7495;SDS011;3789;47.064;15.482;2024-02-14T15:14:12;1.70;;;1.33;;
7495;SDS011;3789;47.064;15.482;2024-02-14T15:16:42;1.30;;;1.20;;
7495;SDS011;3789;47.064;15.482;2024-02-14T15:19:09;2.57;;;1.40;;
7495;SDS011;3789;47.064;15.482;2024-02-14T15:21:39;1.90;;;1.33;;
7495;SDS011;3789;47.064;15.482;2024-02-14T15:24:15;3.03;;;2.07;;
7495;SDS011;3789;47.064;15.482;2024-02-14T15:26:44;2.53;;;1.80;;
7495;SDS011;3789;47.064;15.482;2024-02-14T15:29:21;3.47;;;1.80;;
7495;SDS011;3789;47.064;15.482;2024-02-14T15:32:09;2.17;;;1.60;;
7495;SDS011;3789;47.064;15.482;2024-02-14T15:34:57;1.57;;;1.40;;
7495;SDS011;3789;47.064;15.482;2024-02-14T15:37:27;2.63;;;1.60;;